Terminal Aerodrome Forecast
Issued by NWS

Home | Current Version | Previous Version | Text Only | Print | Product List | Glossary On
Versions: 1 2 3 4 5 6 7 8 9 10 11 12 13 14 15 16 17 18 19 20 21 22 23 24 25 26
000
FTUS46 KSGX 310900 AAB
TAFSAN
TAF AMD
KSAN 310902Z 3109/0112 17007KT 6SM BR BKN004 OVC008
     FM311100 18007KT 6SM BR SCT005 BKN008 OVC012
     FM311400 19007KT P6SM SCT008 OVC012
     FM311700 21008KT P6SM FEW019
     FM010400 19005KT P6SM OVC016=

USA.gov is the U.S. government's official web portal to all federal, state and local government web resources and services.